sensor_id;sensor_type;location;lat;lon;timestamp;temperature;humidity
54461;DHT22;40371;49.414;11.010;2023-03-01T00:00:54;0.00;99.90
54461;DHT22;40371;49.414;11.010;2023-03-01T00:03:20;0.10;99.90
54461;DHT22;40371;49.414;11.010;2023-03-01T00:05:46;0.00;99.90
54461;DHT22;40371;49.414;11.010;2023-03-01T00:08:12;0.00;99.90
54461;DHT22;40371;49.414;11.010;2023-03-01T00:10:38;0.00;99.90
54461;DHT22;40371;49.414;11.010;2023-03-01T00:13:03;0.00;99.90
54461;DHT22;40371;49.414;11.010;2023-03-01T00:15:31;0.00;99.90
54461;DHT22;40371;49.414;11.010;2023-03-01T00:17:57;-0.10;99.90
54461;DHT22;40371;49.414;11.010;2023-03-01T00:20:23;-0.10;99.90
54461;DHT22;40371;49.414;11.010;2023-03-01T00:22:48;-0.10;99.90
54461;DHT22;40371;49.414;11.010;2023-03-01T00:25:14;-0.10;99.90
54461;DHT22;40371;49.414;11.010;2023-03-01T00:27:39;-0.10;99.90
54461;DHT22;40371;49.414;11.010;2023-03-01T00:30:05;-0.10;99.90
54461;DHT22;40371;49.414;11.010;2023-03-01T00:32:31;-0.10;99.90
54461;DHT22;40371;49.414;11.010;2023-03-01T00:34:57;-0.20;99.90
54461;DHT22;40371;49.414;11.010;2023-03-01T00:37:23;-0.20;99.90
54461;DHT22;40371;49.414;11.010;2023-03-01T00:39:49;-0.20;99.90
54461;DHT22;40371;49.414;11.010;2023-03-01T00:42:15;-0.20;99.90
54461;DHT22;40371;49.414;11.010;2023-03-01T00:44:41;-0.20;99.90
54461;DHT22;40371;49.414;11.010;2023-03-01T00:47:07;-0.10;99.90
54461;DHT22;40371;49.414;11.010;2023-03-01T00:49:32;-0.10;99.90
54461;DHT22;40371;49.414;11.010;2023-03-01T00:51:58;-0.20;99.90
54461;DHT22;40371;49.414;11.010;2023-03-01T00:54:23;-0.20;99.90
54461;DHT22;40371;49.414;11.010;2023-03-01T00:56:49;-0.10;99.90
54461;DHT22;40371;49.414;11.010;2023-03-01T00:59:14;-0.10;99.90
54461;DHT22;40371;49.414;11.010;2023-03-01T01:01:40;-0.10;99.90
54461;DHT22;40371;49.414;11.010;2023-03-01T01:04:08;-0.10;99.90
54461;DHT22;40371;49.414;11.010;2023-03-01T01:06:45;-0.10;99.90
54461;DHT22;40371;49.414;11.010;2023-03-01T01:09:13;-0.20;99.90
54461;DHT22;40371;49.414;11.010;2023-03-01T01:11:43;-0.20;99.90
54461;DHT22;40371;49.414;11.010;2023-03-01T01:14:09;-0.30;99.90
54461;DHT22;40371;49.414;11.010;2023-03-01T01:16:35;-0.30;99.90
54461;DHT22;40371;49.414;11.010;2023-03-01T01:19:01;-0.30;99.90
54461;DHT22;40371;49.414;11.010;2023-03-01T01:21:27;-0.20;99.90
54461;DHT22;40371;49.414;11.010;2023-03-01T01:23:53;-0.10;99.90
54461;DHT22;40371;49.414;11.010;2023-03-01T01:26:21;-0.10;99.90
54461;DHT22;40371;49.414;11.010;2023-03-01T01:28:49;-0.10;99.90
54461;DHT22;40371;49.414;11.010;2023-03-01T01:31:16;-0.10;99.90
54461;DHT22;40371;49.414;11.010;2023-03-01T01:33:42;-0.10;99.90
54461;DHT22;40371;49.414;11.010;2023-03-01T01:36:08;-0.10;99.90
54461;DHT22;40371;49.414;11.010;2023-03-01T01:38:35;-0.10;99.90
54461;DHT22;40371;49.414;11.010;2023-03-01T01:41:01;-0.10;99.90
54461;DHT22;40371;49.414;11.010;2023-03-01T01:43:31;-0.10;99.90
54461;DHT22;40371;49.414;11.010;2023-03-01T01:46:02;-0.10;99.90
54461;DHT22;40371;49.414;11.010;2023-03-01T01:48:38;-0.10;99.90
54461;DHT22;40371;49.414;11.010;2023-03-01T01:51:09;-0.10;99.90
54461;DHT22;40371;49.414;11.010;2023-03-01T01:53:37;-0.10;99.90
54461;DHT22;40371;49.414;11.010;2023-03-01T01:56:06;-0.20;99.90
54461;DHT22;40371;49.414;11.010;2023-03-01T01:58:33;-0.30;99.90
54461;DHT22;40371;49.414;11.010;2023-03-01T02:00:59;-0.20;99.90
54461;DHT22;40371;49.414;11.010;2023-03-01T02:03:29;-0.20;99.90
54461;DHT22;40371;49.414;11.010;2023-03-01T02:06:04;-0.20;99.90
54461;DHT22;40371;49.414;11.010;2023-03-01T02:08:33;-0.20;99.90
54461;DHT22;40371;49.414;11.010;2023-03-01T02:11:01;-0.30;99.90
54461;DHT22;40371;49.414;11.010;2023-03-01T02:13:30;-0.30;99.90
54461;DHT22;40371;49.414;11.010;2023-03-01T02:15:56;-0.40;99.90
54461;DHT22;40371;49.414;11.010;2023-03-01T02:18:23;-0.40;99.90
54461;DHT22;40371;49.414;11.010;2023-03-01T02:23:48;-0.40;99.90
54461;DHT22;40371;49.414;11.010;2023-03-01T02:26:21;-0.40;99.90
54461;DHT22;40371;49.414;11.010;2023-03-01T02:28:48;-0.40;99.90
54461;DHT22;40371;49.414;11.010;2023-03-01T02:31:17;-0.40;99.90
54461;DHT22;40371;49.414;11.010;2023-03-01T02:34:02;-0.30;99.90
54461;DHT22;40371;49.414;11.010;2023-03-01T02:36:38;-0.40;99.90
54461;DHT22;40371;49.414;11.010;2023-03-01T02:39:07;-0.40;99.90
54461;DHT22;40371;49.414;11.010;2023-03-01T02:41:38;-0.30;99.90
54461;DHT22;40371;49.414;11.010;2023-03-01T02:44:05;-0.40;99.90
54461;DHT22;40371;49.414;11.010;2023-03-01T02:46:31;-0.40;99.90
54461;DHT22;40371;49.414;11.010;2023-03-01T02:48:58;-0.50;99.90
54461;DHT22;40371;49.414;11.010;2023-03-01T02:54:22;-0.50;99.90
54461;DHT22;40371;49.414;11.010;2023-03-01T02:56:49;-0.60;99.90
54461;DHT22;40371;49.414;11.010;2023-03-01T02:59:20;-0.70;99.90
54461;DHT22;40371;49.414;11.010;2023-03-01T03:01:47;-0.70;99.90
54461;DHT22;40371;49.414;11.010;2023-03-01T03:04:15;-0.70;99.90
54461;DHT22;40371;49.414;11.010;2023-03-01T03:06:48;-0.80;99.90
54461;DHT22;40371;49.414;11.010;2023-03-01T03:09:16;-0.70;99.90
54461;DHT22;40371;49.414;11.010;2023-03-01T03:11:42;-0.80;99.90
54461;DHT22;40371;49.414;11.010;2023-03-01T03:14:10;-0.90;99.90
54461;DHT22;40371;49.414;11.010;2023-03-01T03:16:43;-0.90;99.90
54461;DHT22;40371;49.414;11.010;2023-03-01T03:19:09;-0.80;99.90
54461;DHT22;40371;49.414;11.010;2023-03-01T03:21:35;-0.90;99.90
54461;DHT22;40371;49.414;11.010;2023-03-01T03:24:02;-0.90;99.90
54461;DHT22;40371;49.414;11.010;2023-03-01T03:26:27;-0.90;99.90
54461;DHT22;40371;49.414;11.010;2023-03-01T03:28:53;-0.90;99.90
54461;DHT22;40371;49.414;11.010;2023-03-01T03:31:20;-0.90;99.90
54461;DHT22;40371;49.414;11.010;2023-03-01T03:33:45;-1.00;99.90
54461;DHT22;40371;49.414;11.010;2023-03-01T03:36:16;-1.00;99.90
54461;DHT22;40371;49.414;11.010;2023-03-01T03:38:43;-1.10;99.90
54461;DHT22;40371;49.414;11.010;2023-03-01T03:41:09;-1.00;99.90
54461;DHT22;40371;49.414;11.010;2023-03-01T03:43:37;-1.00;99.90
54461;DHT22;40371;49.414;11.010;2023-03-01T03:46:04;-0.90;99.90
54461;DHT22;40371;49.414;11.010;2023-03-01T03:48:34;-0.90;99.90
54461;DHT22;40371;49.414;11.010;2023-03-01T03:51:00;-0.90;99.90
54461;DHT22;40371;49.414;11.010;2023-03-01T03:53:28;-0.90;99.90
54461;DHT22;40371;49.414;11.010;2023-03-01T03:55:55;-0.90;99.90
54461;DHT22;40371;49.414;11.010;2023-03-01T03:58:22;-1.00;99.90
54461;DHT22;40371;49.414;11.010;2023-03-01T04:00:51;-1.00;99.90
54461;DHT22;40371;49.414;11.010;2023-03-01T04:03:19;-0.90;99.90
54461;DHT22;40371;49.414;11.010;2023-03-01T04:05:45;-0.90;99.90
54461;DHT22;40371;49.414;11.010;2023-03-01T04:08:11;-0.90;99.90
54461;DHT22;40371;49.414;11.010;2023-03-01T04:10:39;-1.00;99.90
54461;DHT22;40371;49.414;11.010;2023-03-01T04:13:06;-1.00;99.90
54461;DHT22;40371;49.414;11.010;2023-03-01T04:15:33;-1.10;99.90
54461;DHT22;40371;49.414;11.010;2023-03-01T04:17:59;-1.10;99.90
54461;DHT22;40371;49.414;11.010;2023-03-01T04:20:28;-1.00;99.90
54461;DHT22;40371;49.414;11.010;2023-03-01T04:23:09;-0.90;99.90
54461;DHT22;40371;49.414;11.010;2023-03-01T04:28:23;-1.10;99.90
54461;DHT22;40371;49.414;11.010;2023-03-01T04:30:53;-1.00;99.90
54461;DHT22;40371;49.414;11.010;2023-03-01T04:33:19;-1.00;99.90
54461;DHT22;40371;49.414;11.010;2023-03-01T04:35:45;-1.00;99.90
54461;DHT22;40371;49.414;11.010;2023-03-01T04:38:11;-1.00;99.90
54461;DHT22;40371;49.414;11.010;2023-03-01T04:40:37;-1.00;99.90
54461;DHT22;40371;49.414;11.010;2023-03-01T04:43:03;-1.00;99.90
54461;DHT22;40371;49.414;11.010;2023-03-01T04:45:31;-1.00;99.90
54461;DHT22;40371;49.414;11.010;2023-03-01T04:47:59;-1.10;99.90
54461;DHT22;40371;49.414;11.010;2023-03-01T04:50:25;-1.10;99.90
54461;DHT22;40371;49.414;11.010;2023-03-01T04:52:51;-1.10;99.90
54461;DHT22;40371;49.414;11.010;2023-03-01T04:55:17;-1.10;99.90
54461;DHT22;40371;49.414;11.010;2023-03-01T04:57:43;-1.00;99.90
54461;DHT22;40371;49.414;11.010;2023-03-01T05:00:12;-1.00;99.90
54461;DHT22;40371;49.414;11.010;2023-03-01T05:02:48;-1.00;99.90
54461;DHT22;40371;49.414;11.010;2023-03-01T05:05:19;-1.00;99.90
54461;DHT22;40371;49.414;11.010;2023-03-01T05:07:45;-1.00;99.90
54461;DHT22;40371;49.414;11.010;2023-03-01T05:10:10;-1.00;99.90
54461;DHT22;40371;49.414;11.010;2023-03-01T05:12:36;-1.00;99.90
54461;DHT22;40371;49.414;11.010;2023-03-01T05:15:03;-1.10;99.90
54461;DHT22;40371;49.414;11.010;2023-03-01T05:17:33;-1.00;99.90
54461;DHT22;40371;49.414;11.010;2023-03-01T05:19:59;-1.00;99.90
54461;DHT22;40371;49.414;11.010;2023-03-01T05:22:25;-1.00;99.90
54461;DHT22;40371;49.414;11.010;2023-03-01T05:24:51;-1.00;99.90
54461;DHT22;40371;49.414;11.010;2023-03-01T05:27:16;-1.00;99.90
54461;DHT22;40371;49.414;11.010;2023-03-01T05:29:42;-1.00;99.90
54461;DHT22;40371;49.414;11.010;2023-03-01T05:32:07;-1.00;99.90
54461;DHT22;40371;49.414;11.010;2023-03-01T05:34:35;-0.90;99.90
54461;DHT22;40371;49.414;11.010;2023-03-01T05:37:02;-0.90;99.90
54461;DHT22;40371;49.414;11.010;2023-03-01T05:39:29;-1.00;99.90
54461;DHT22;40371;49.414;11.010;2023-03-01T05:41:59;-1.00;99.90
54461;DHT22;40371;49.414;11.010;2023-03-01T05:44:26;-0.90;99.90
54461;DHT22;40371;49.414;11.010;2023-03-01T05:46:52;-0.90;99.90
54461;DHT22;40371;49.414;11.010;2023-03-01T05:49:18;-0.90;99.90
54461;DHT22;40371;49.414;11.010;2023-03-01T05:51:48;-0.90;99.90
54461;DHT22;40371;49.414;11.010;2023-03-01T05:54:14;-0.90;99.90
54461;DHT22;40371;49.414;11.010;2023-03-01T05:56:40;-0.90;99.90
54461;DHT22;40371;49.414;11.010;2023-03-01T05:59:06;-0.90;99.90
54461;DHT22;40371;49.414;11.010;2023-03-01T06:01:33;-0.90;99.90
54461;DHT22;40371;49.414;11.010;2023-03-01T06:03:58;-0.90;99.90
54461;DHT22;40371;49.414;11.010;2023-03-01T06:06:25;-1.00;99.90
54461;DHT22;40371;49.414;11.010;2023-03-01T06:08:51;-1.00;99.90
54461;DHT22;40371;49.414;11.010;2023-03-01T06:11:17;-0.90;99.90
54461;DHT22;40371;49.414;11.010;2023-03-01T06:13:44;-1.00;99.90
54461;DHT22;40371;49.414;11.010;2023-03-01T06:16:10;-1.00;99.90
54461;DHT22;40371;49.414;11.010;2023-03-01T06:18:37;-0.90;99.90
54461;DHT22;40371;49.414;11.010;2023-03-01T06:21:03;-1.00;99.90
54461;DHT22;40371;49.414;11.010;2023-03-01T06:23:29;-0.90;99.90
54461;DHT22;40371;49.414;11.010;2023-03-01T06:25:54;-0.90;99.90
54461;DHT22;40371;49.414;11.010;2023-03-01T06:28:20;-0.80;99.90
54461;DHT22;40371;49.414;11.010;2023-03-01T06:30:46;-0.80;99.90
54461;DHT22;40371;49.414;11.010;2023-03-01T06:33:14;-0.70;99.90
54461;DHT22;40371;49.414;11.010;2023-03-01T06:35:39;-0.70;99.90
54461;DHT22;40371;49.414;11.010;2023-03-01T06:38:05;-0.70;99.90
54461;DHT22;40371;49.414;11.010;2023-03-01T06:40:31;-0.60;99.90
54461;DHT22;40371;49.414;11.010;2023-03-01T06:42:58;-0.60;99.90
54461;DHT22;40371;49.414;11.010;2023-03-01T06:45:24;-0.60;99.90
54461;DHT22;40371;49.414;11.010;2023-03-01T06:47:50;-0.50;99.90
54461;DHT22;40371;49.414;11.010;2023-03-01T06:50:17;-0.50;99.90
54461;DHT22;40371;49.414;11.010;2023-03-01T06:52:43;-0.40;99.90
54461;DHT22;40371;49.414;11.010;2023-03-01T06:55:11;-0.40;99.90
54461;DHT22;40371;49.414;11.010;2023-03-01T06:57:37;-0.40;99.90
54461;DHT22;40371;49.414;11.010;2023-03-01T07:00:05;-0.40;99.90
54461;DHT22;40371;49.414;11.010;2023-03-01T07:02:32;-0.20;99.90
54461;DHT22;40371;49.414;11.010;2023-03-01T07:04:57;-0.20;99.90
54461;DHT22;40371;49.414;11.010;2023-03-01T07:07:23;-0.10;99.90
54461;DHT22;40371;49.414;11.010;2023-03-01T07:09:49;0.00;99.90
54461;DHT22;40371;49.414;11.010;2023-03-01T07:12:15;0.10;99.90
54461;DHT22;40371;49.414;11.010;2023-03-01T07:14:41;0.10;99.90
54461;DHT22;40371;49.414;11.010;2023-03-01T07:17:07;0.20;99.90
54461;DHT22;40371;49.414;11.010;2023-03-01T07:19:32;0.30;99.90
54461;DHT22;40371;49.414;11.010;2023-03-01T07:21:58;0.30;99.90
54461;DHT22;40371;49.414;11.010;2023-03-01T07:24:23;0.40;99.90
54461;DHT22;40371;49.414;11.010;2023-03-01T07:26:50;0.40;99.90
54461;DHT22;40371;49.414;11.010;2023-03-01T07:29:17;0.30;99.90
54461;DHT22;40371;49.414;11.010;2023-03-01T07:31:42;0.60;99.90
54461;DHT22;40371;49.414;11.010;2023-03-01T07:34:08;0.90;99.90
54461;DHT22;40371;49.414;11.010;2023-03-01T07:36:34;1.20;99.90
54461;DHT22;40371;49.414;11.010;2023-03-01T07:38:59;1.40;99.90
54461;DHT22;40371;49.414;11.010;2023-03-01T07:41:28;1.70;99.90
54461;DHT22;40371;49.414;11.010;2023-03-01T07:43:53;2.00;99.90
54461;DHT22;40371;49.414;11.010;2023-03-01T07:46:19;2.30;99.90
54461;DHT22;40371;49.414;11.010;2023-03-01T07:48:45;2.60;99.90
54461;DHT22;40371;49.414;11.010;2023-03-01T07:51:11;3.00;99.90
54461;DHT22;40371;49.414;11.010;2023-03-01T07:53:36;3.40;99.90
54461;DHT22;40371;49.414;11.010;2023-03-01T07:56:06;3.60;99.90
54461;DHT22;40371;49.414;11.010;2023-03-01T07:58:37;3.90;99.90
54461;DHT22;40371;49.414;11.010;2023-03-01T08:01:05;4.30;99.90
54461;DHT22;40371;49.414;11.010;2023-03-01T08:03:31;5.10;99.90
54461;DHT22;40371;49.414;11.010;2023-03-01T08:05:59;8.30;99.80
54461;DHT22;40371;49.414;11.010;2023-03-01T08:08:26;10.20;92.00
54461;DHT22;40371;49.414;11.010;2023-03-01T08:10:51;10.00;86.90
54461;DHT22;40371;49.414;11.010;2023-03-01T08:13:17;9.00;86.40
54461;DHT22;40371;49.414;11.010;2023-03-01T08:15:48;8.80;87.20
54461;DHT22;40371;49.414;11.010;2023-03-01T08:18:15;8.40;88.70
54461;DHT22;40371;49.414;11.010;2023-03-01T08:20:40;9.90;85.10
54461;DHT22;40371;49.414;11.010;2023-03-01T08:23:06;11.40;80.00
54461;DHT22;40371;49.414;11.010;2023-03-01T08:25:31;12.50;76.10
54461;DHT22;40371;49.414;11.010;2023-03-01T08:27:57;13.30;71.70
54461;DHT22;40371;49.414;11.010;2023-03-01T08:30:22;13.10;71.00
54461;DHT22;40371;49.414;11.010;2023-03-01T08:32:49;12.50;68.40
54461;DHT22;40371;49.414;11.010;2023-03-01T08:35:16;11.10;71.10
54461;DHT22;40371;49.414;11.010;2023-03-01T08:37:42;12.50;72.30
54461;DHT22;40371;49.414;11.010;2023-03-01T08:40:08;14.20;67.70
54461;DHT22;40371;49.414;11.010;2023-03-01T08:42:35;13.10;63.80
54461;DHT22;40371;49.414;11.010;2023-03-01T08:45:02;13.60;66.70
54461;DHT22;40371;49.414;11.010;2023-03-01T08:47:28;16.20;63.50
54461;DHT22;40371;49.414;11.010;2023-03-01T08:49:53;17.70;58.80
54461;DHT22;40371;49.414;11.010;2023-03-01T08:52:20;18.30;56.50
54461;DHT22;40371;49.414;11.010;2023-03-01T08:54:47;15.00;54.50
54461;DHT22;40371;49.414;11.010;2023-03-01T08:57:13;13.60;60.60
54461;DHT22;40371;49.414;11.010;2023-03-01T08:59:38;15.20;59.50
54461;DHT22;40371;49.414;11.010;2023-03-01T09:02:05;13.20;57.50
54461;DHT22;40371;49.414;11.010;2023-03-01T09:04:31;10.60;62.40
54461;DHT22;40371;49.414;11.010;2023-03-01T09:06:57;10.10;64.50
54461;DHT22;40371;49.414;11.010;2023-03-01T09:09:22;10.80;65.20
54461;DHT22;40371;49.414;11.010;2023-03-01T09:11:48;13.60;64.50
54461;DHT22;40371;49.414;11.010;2023-03-01T09:14:15;13.70;61.10
54461;DHT22;40371;49.414;11.010;2023-03-01T09:16:41;15.20;58.70
54461;DHT22;40371;49.414;11.010;2023-03-01T09:19:07;16.80;56.30
54461;DHT22;40371;49.414;11.010;2023-03-01T09:21:32;17.70;56.20
54461;DHT22;40371;49.414;11.010;2023-03-01T09:23:58;18.10;54.30
54461;DHT22;40371;49.414;11.010;2023-03-01T09:26:24;18.60;51.70
54461;DHT22;40371;49.414;11.010;2023-03-01T09:28:52;17.60;52.30
54461;DHT22;40371;49.414;11.010;2023-03-01T09:31:19;18.90;51.90
54461;DHT22;40371;49.414;11.010;2023-03-01T09:33:47;19.70;51.30
54461;DHT22;40371;49.414;11.010;2023-03-01T09:36:16;19.50;50.30
54461;DHT22;40371;49.414;11.010;2023-03-01T09:38:41;21.50;49.90
54461;DHT22;40371;49.414;11.010;2023-03-01T09:41:36;21.20;45.30
54461;DHT22;40371;49.414;11.010;2023-03-01T09:46:55;20.90;45.70
54461;DHT22;40371;49.414;11.010;2023-03-01T09:49:25;21.50;44.90
54461;DHT22;40371;49.414;11.010;2023-03-01T09:52:30;20.70;43.90
54461;DHT22;40371;49.414;11.010;2023-03-01T09:54:58;19.50;46.70
54461;DHT22;40371;49.414;11.010;2023-03-01T09:57:33;20.40;46.00
54461;DHT22;40371;49.414;11.010;2023-03-01T10:00:39;21.70;45.50
54461;DHT22;40371;49.414;11.010;2023-03-01T10:03:26;20.50;43.60
54461;DHT22;40371;49.414;11.010;2023-03-01T10:05:56;22.80;44.70
54461;DHT22;40371;49.414;11.010;2023-03-01T10:08:38;22.90;43.40
54461;DHT22;40371;49.414;11.010;2023-03-01T10:11:26;21.70;41.40
54461;DHT22;40371;49.414;11.010;2023-03-01T10:16:51;23.50;43.60
54461;DHT22;40371;49.414;11.010;2023-03-01T10:19:40;25.40;40.80
54461;DHT22;40371;49.414;11.010;2023-03-01T10:22:19;25.20;40.90
54461;DHT22;40371;49.414;11.010;2023-03-01T10:24:50;28.40;39.80
54461;DHT22;40371;49.414;11.010;2023-03-01T10:27:21;26.50;37.10
54461;DHT22;40371;49.414;11.010;2023-03-01T10:32:23;27.60;39.40
54461;DHT22;40371;49.414;11.010;2023-03-01T10:34:49;21.50;39.70
54461;DHT22;40371;49.414;11.010;2023-03-01T10:37:20;19.20;43.00
54461;DHT22;40371;49.414;11.010;2023-03-01T10:39:57;21.90;42.90
54461;DHT22;40371;49.414;11.010;2023-03-01T10:42:27;21.30;41.50
54461;DHT22;40371;49.414;11.010;2023-03-01T10:44:53;23.50;41.30
54461;DHT22;40371;49.414;11.010;2023-03-01T10:47:25;24.10;41.10
54461;DHT22;40371;49.414;11.010;2023-03-01T10:52:24;28.30;37.70
54461;DHT22;40371;49.414;11.010;2023-03-01T10:54:56;25.20;38.30
54461;DHT22;40371;49.414;11.010;2023-03-01T10:57:33;24.70;38.90
54461;DHT22;40371;49.414;11.010;2023-03-01T11:02:41;25.80;36.80
54461;DHT22;40371;49.414;11.010;2023-03-01T11:05:19;25.60;38.40
54461;DHT22;40371;49.414;11.010;2023-03-01T11:07:52;27.50;38.00
54461;DHT22;40371;49.414;11.010;2023-03-01T11:10:26;28.20;36.00
54461;DHT22;40371;49.414;11.010;2023-03-01T11:12:52;29.80;37.30
54461;DHT22;40371;49.414;11.010;2023-03-01T11:15:27;31.80;33.60
54461;DHT22;40371;49.414;11.010;2023-03-01T11:17:54;29.40;35.50
54461;DHT22;40371;49.414;11.010;2023-03-01T11:23:05;31.40;33.80
54461;DHT22;40371;49.414;11.010;2023-03-01T11:25:40;26.60;34.50
54461;DHT22;40371;49.414;11.010;2023-03-01T11:28:12;29.90;35.00
54461;DHT22;40371;49.414;11.010;2023-03-01T11:30:53;28.00;33.70
54461;DHT22;40371;49.414;11.010;2023-03-01T11:33:48;26.60;36.40
54461;DHT22;40371;49.414;11.010;2023-03-01T11:39:22;21.80;40.40
54461;DHT22;40371;49.414;11.010;2023-03-01T11:41:56;18.50;40.40
54461;DHT22;40371;49.414;11.010;2023-03-01T11:44:27;22.80;40.50
54461;DHT22;40371;49.414;11.010;2023-03-01T11:58:06;15.20;45.40
54461;DHT22;40371;49.414;11.010;2023-03-01T12:00:38;15.20;47.20
54461;DHT22;40371;49.414;11.010;2023-03-01T12:03:28;14.40;47.30
54461;DHT22;40371;49.414;11.010;2023-03-01T12:06:33;15.10;48.20
54461;DHT22;40371;49.414;11.010;2023-03-01T12:09:11;14.60;46.30
54461;DHT22;40371;49.414;11.010;2023-03-01T12:20:42;16.20;48.20
54461;DHT22;40371;49.414;11.010;2023-03-01T12:34:23;16.20;47.90
54461;DHT22;40371;49.414;11.010;2023-03-01T12:37:09;14.50;49.00
54461;DHT22;40371;49.414;11.010;2023-03-01T12:48:23;11.40;54.00
54461;DHT22;40371;49.414;11.010;2023-03-01T12:50:53;11.20;54.50
54461;DHT22;40371;49.414;11.010;2023-03-01T12:53:47;10.80;54.50
54461;DHT22;40371;49.414;11.010;2023-03-01T12:56:22;11.80;55.20
54461;DHT22;40371;49.414;11.010;2023-03-01T13:04:35;11.50;56.20
54461;DHT22;40371;49.414;11.010;2023-03-01T13:07:13;10.80;57.00
54461;DHT22;40371;49.414;11.010;2023-03-01T13:12:44;11.50;56.00
54461;DHT22;40371;49.414;11.010;2023-03-01T13:17:57;10.80;57.90
54461;DHT22;40371;49.414;11.010;2023-03-01T13:23:25;11.30;58.10
54461;DHT22;40371;49.414;11.010;2023-03-01T13:33:49;10.80;59.90
54461;DHT22;40371;49.414;11.010;2023-03-01T13:39:00;11.40;59.50
54461;DHT22;40371;49.414;11.010;2023-03-01T13:47:12;10.90;60.30
54461;DHT22;40371;49.414;11.010;2023-03-01T13:50:03;10.70;61.00
54461;DHT22;40371;49.414;11.010;2023-03-01T13:57:37;10.70;61.70
54461;DHT22;40371;49.414;11.010;2023-03-01T14:00:05;10.60;62.40
54461;DHT22;40371;49.414;11.010;2023-03-01T14:02:32;10.60;62.70
54461;DHT22;40371;49.414;11.010;2023-03-01T14:05:00;10.30;63.60
54461;DHT22;40371;49.414;11.010;2023-03-01T14:07:27;10.40;63.60
54461;DHT22;40371;49.414;11.010;2023-03-01T14:10:01;10.10;64.20
54461;DHT22;40371;49.414;11.010;2023-03-01T14:17:43;10.20;64.50
54461;DHT22;40371;49.414;11.010;2023-03-01T14:20:23;10.30;65.20
54461;DHT22;40371;49.414;11.010;2023-03-01T14:22:53;10.40;64.90
54461;DHT22;40371;49.414;11.010;2023-03-01T14:25:26;10.40;64.90
54461;DHT22;40371;49.414;11.010;2023-03-01T14:28:19;10.20;65.70
54461;DHT22;40371;49.414;11.010;2023-03-01T14:30:50;10.30;66.40
54461;DHT22;40371;49.414;11.010;2023-03-01T14:36:01;10.40;66.00
54461;DHT22;40371;49.414;11.010;2023-03-01T14:38:46;9.90;67.80
54461;DHT22;40371;49.414;11.010;2023-03-01T14:41:18;10.20;67.30
54461;DHT22;40371;49.414;11.010;2023-03-01T14:43:51;10.10;66.70
54461;DHT22;40371;49.414;11.010;2023-03-01T14:49:01;9.90;68.90
54461;DHT22;40371;49.414;11.010;2023-03-01T14:51:27;10.00;68.00
54461;DHT22;40371;49.414;11.010;2023-03-01T14:53:53;9.80;69.50
54461;DHT22;40371;49.414;11.010;2023-03-01T14:56:19;9.90;70.10
54461;DHT22;40371;49.414;11.010;2023-03-01T14:58:45;10.00;68.40
54461;DHT22;40371;49.414;11.010;2023-03-01T15:01:16;10.00;68.40
54461;DHT22;40371;49.414;11.010;2023-03-01T15:03:47;10.00;68.70
54461;DHT22;40371;49.414;11.010;2023-03-01T15:06:18;10.00;69.00
54461;DHT22;40371;49.414;11.010;2023-03-01T15:08:47;10.00;69.10
54461;DHT22;40371;49.414;11.010;2023-03-01T15:13:40;10.00;69.40
54461;DHT22;40371;49.414;11.010;2023-03-01T15:18:54;9.50;71.20
54461;DHT22;40371;49.414;11.010;2023-03-01T15:21:27;9.60;71.20
54461;DHT22;40371;49.414;11.010;2023-03-01T15:24:03;9.70;71.50
54461;DHT22;40371;49.414;11.010;2023-03-01T15:26:33;9.70;71.30
54461;DHT22;40371;49.414;11.010;2023-03-01T15:29:00;9.70;71.50
54461;DHT22;40371;49.414;11.010;2023-03-01T15:31:28;9.70;71.70
54461;DHT22;40371;49.414;11.010;2023-03-01T15:34:22;9.50;71.90
54461;DHT22;40371;49.414;11.010;2023-03-01T15:36:50;9.70;72.50
54461;DHT22;40371;49.414;11.010;2023-03-01T15:39:35;9.40;73.20
54461;DHT22;40371;49.414;11.010;2023-03-01T15:42:51;9.40;73.90
54461;DHT22;40371;49.414;11.010;2023-03-01T15:47:41;9.30;74.30
54461;DHT22;40371;49.414;11.010;2023-03-01T15:50:31;9.30;74.80
54461;DHT22;40371;49.414;11.010;2023-03-01T15:53:04;9.10;75.30
54461;DHT22;40371;49.414;11.010;2023-03-01T15:55:32;9.20;76.20
54461;DHT22;40371;49.414;11.010;2023-03-01T15:58:15;9.00;75.80
54461;DHT22;40371;49.414;11.010;2023-03-01T16:00:41;8.90;76.30
54461;DHT22;40371;49.414;11.010;2023-03-01T16:03:09;8.80;76.60
54461;DHT22;40371;49.414;11.010;2023-03-01T16:05:37;8.80;76.60
54461;DHT22;40371;49.414;11.010;2023-03-01T16:08:04;8.80;77.00
54461;DHT22;40371;49.414;11.010;2023-03-01T16:10:34;8.80;77.20
54461;DHT22;40371;49.414;11.010;2023-03-01T16:13:00;8.80;77.50
54461;DHT22;40371;49.414;11.010;2023-03-01T16:15:31;8.70;77.50
54461;DHT22;40371;49.414;11.010;2023-03-01T16:17:58;8.70;77.90
54461;DHT22;40371;49.414;11.010;2023-03-01T16:20:25;8.60;78.30
54461;DHT22;40371;49.414;11.010;2023-03-01T16:22:51;8.40;78.70
54461;DHT22;40371;49.414;11.010;2023-03-01T16:25:19;8.30;79.50
54461;DHT22;40371;49.414;11.010;2023-03-01T16:27:46;8.30;79.80
54461;DHT22;40371;49.414;11.010;2023-03-01T16:30:14;8.20;80.30
54461;DHT22;40371;49.414;11.010;2023-03-01T16:32:42;8.20;80.60
54461;DHT22;40371;49.414;11.010;2023-03-01T16:35:10;8.10;80.80
54461;DHT22;40371;49.414;11.010;2023-03-01T16:37:36;8.00;80.70
54461;DHT22;40371;49.414;11.010;2023-03-01T16:40:04;7.80;81.50
54461;DHT22;40371;49.414;11.010;2023-03-01T16:42:34;7.70;82.30
54461;DHT22;40371;49.414;11.010;2023-03-01T16:45:05;7.70;82.60
54461;DHT22;40371;49.414;11.010;2023-03-01T16:47:33;7.50;83.00
54461;DHT22;40371;49.414;11.010;2023-03-01T16:49:58;7.50;83.50
54461;DHT22;40371;49.414;11.010;2023-03-01T16:52:24;7.40;83.80
54461;DHT22;40371;49.414;11.010;2023-03-01T16:54:49;7.30;84.30
54461;DHT22;40371;49.414;11.010;2023-03-01T16:57:15;7.30;84.90
54461;DHT22;40371;49.414;11.010;2023-03-01T16:59:41;7.20;84.90
54461;DHT22;40371;49.414;11.010;2023-03-01T17:02:11;7.20;85.20
54461;DHT22;40371;49.414;11.010;2023-03-01T17:04:38;7.10;85.60
54461;DHT22;40371;49.414;11.010;2023-03-01T17:07:04;7.00;85.80
54461;DHT22;40371;49.414;11.010;2023-03-01T17:09:29;7.00;86.40
54461;DHT22;40371;49.414;11.010;2023-03-01T17:11:55;6.90;86.50
54461;DHT22;40371;49.414;11.010;2023-03-01T17:14:21;6.90;86.90
54461;DHT22;40371;49.414;11.010;2023-03-01T17:16:46;6.80;87.40
54461;DHT22;40371;49.414;11.010;2023-03-01T17:19:12;6.80;87.90
54461;DHT22;40371;49.414;11.010;2023-03-01T17:21:43;6.70;88.30
54461;DHT22;40371;49.414;11.010;2023-03-01T17:24:09;6.70;88.50
54461;DHT22;40371;49.414;11.010;2023-03-01T17:26:35;6.60;88.70
54461;DHT22;40371;49.414;11.010;2023-03-01T17:29:01;6.60;89.30
54461;DHT22;40371;49.414;11.010;2023-03-01T17:31:28;6.60;89.40
54461;DHT22;40371;49.414;11.010;2023-03-01T17:33:53;6.60;89.60